Time;durP1;ratioP1;P1;durP2;ratioP2;P2;SDS_P1;SDS_P2;PMS_P1;PMS_P2;Temp;Humidity;BMP_temperature;BMP_pressure;BME280_temperature;BME280_humidity;BME280_pressure;Samples;Min_cycle;Max_cycle;Signal;HPM_P1;HPM_P2
2023/03/31 00:02:00;;;;;;;6.20;2.20;;;13.30;96.70;;;;;;5012352;28;20517;-72
2023/03/31 00:04:30;;;;;;;8.02;2.05;;;13.40;96.70;;;;;;5014435;28;20053;-72
2023/03/31 00:06:59;;;;;;;8.20;2.10;;;13.40;96.70;;;;;;5010515;28;20050;-72
2023/03/31 00:09:28;;;;;;;8.02;2.45;;;13.30;96.70;;;;;;5012135;28;20053;-73
2023/03/31 00:11:56;;;;;;;7.20;1.63;;;13.30;96.70;;;;;;4997502;28;20423;-72
2023/03/31 00:14:24;;;;;;;7.05;2.20;;;13.30;96.70;;;;;;4997560;28;20034;-72
2023/03/31 00:16:52;;;;;;;6.22;2.00;;;13.30;96.70;;;;;;4992270;28;20053;-72
2023/03/31 00:19:20;;;;;;;5.07;2.03;;;13.20;96.70;;;;;;5000067;28;20042;-72
2023/03/31 00:21:50;;;;;;;5.53;2.15;;;13.20;96.70;;;;;;4985796;28;20053;-72
2023/03/31 00:24:18;;;;;;;6.35;1.92;;;13.30;96.70;;;;;;4995420;28;20038;-72
2023/03/31 00:26:47;;;;;;;6.78;2.17;;;13.30;96.70;;;;;;4997506;28;20202;-71
2023/03/31 00:29:15;;;;;;;6.10;2.00;;;13.20;96.70;;;;;;5002248;28;20537;-73
2023/03/31 00:31:43;;;;;;;5.75;1.63;;;13.10;96.70;;;;;;4993888;28;20137;-72
2023/03/31 00:34:11;;;;;;;8.60;1.92;;;13.20;96.70;;;;;;5005729;28;20045;-72
2023/03/31 00:36:46;;;;;;;7.95;2.47;;;13.20;96.70;;;;;;4983364;28;20045;-72
2023/03/31 00:39:16;;;;;;;5.53;1.80;;;13.10;96.70;;;;;;4990087;28;20042;-72
2023/03/31 00:41:45;;;;;;;8.95;1.92;;;13.10;96.70;;;;;;4998985;28;21681;-72
2023/03/31 00:44:23;;;;;;;7.22;2.22;;;13.10;96.70;;;;;;4991789;28;20104;-72
2023/03/31 00:46:54;;;;;;;9.15;1.92;;;13.10;96.70;;;;;;4972455;28;20042;-72
2023/03/31 00:49:28;;;;;;;7.63;2.20;;;13.00;96.70;;;;;;5002167;28;20041;-72
2023/03/31 00:52:01;;;;;;;7.50;1.98;;;13.00;96.70;;;;;;5015924;28;20046;-71
2023/03/31 00:54:32;;;;;;;6.78;1.80;;;13.00;96.70;;;;;;4998562;28;20061;-72
2023/03/31 00:57:05;;;;;;;7.50;1.58;;;13.00;96.70;;;;;;4986715;28;20057;-72
2023/03/31 00:59:37;;;;;;;4.95;1.70;;;13.00;96.70;;;;;;5019294;28;20622;-72
2023/03/31 01:02:07;;;;;;;7.65;1.50;;;13.00;96.70;;;;;;4993905;28;20072;-71
2023/03/31 01:04:43;;;;;;;8.93;1.77;;;13.00;96.70;;;;;;5016642;28;20769;-72
2023/03/31 01:07:17;;;;;;;6.30;2.00;;;12.90;96.70;;;;;;5011546;28;20041;-72
2023/03/31 01:09:46;;;;;;;7.28;2.10;;;12.90;96.70;;;;;;4973450;28;20149;-72
2023/03/31 01:12:16;;;;;;;7.63;2.05;;;12.90;96.70;;;;;;4996666;28;20757;-72
2023/03/31 01:14:47;;;;;;;6.43;1.83;;;12.90;96.70;;;;;;5004352;28;20119;-71
2023/03/31 01:17:17;;;;;;;6.97;1.80;;;12.90;96.70;;;;;;5018965;28;20045;-71
2023/03/31 01:20:10;;;;;;;6.10;1.77;;;13.00;96.70;;;;;;5000978;28;20054;-71
2023/03/31 01:23:01;;;;;;;7.70;1.98;;;13.00;96.70;;;;;;5013200;28;20041;-72
2023/03/31 01:26:06;;;;;;;6.60;1.42;;;12.90;96.70;;;;;;5012263;28;20519;-71
2023/03/31 01:28:39;;;;;;;3.92;1.38;;;12.90;96.70;;;;;;4997263;28;20260;-71
2023/03/31 01:31:39;;;;;;;13.27;2.08;;;13.00;96.70;;;;;;4996261;28;20974;-71
2023/03/31 01:34:45;;;;;;;4.95;1.40;;;13.00;96.70;;;;;;4988682;28;20052;-71
2023/03/31 01:38:04;;;;;;;4.47;1.35;;;13.10;96.70;;;;;;4997428;28;20115;-71
2023/03/31 01:40:41;;;;;;;;;;;13.10;96.70;;;;;;5017229;28;20073;-72
2023/03/31 01:43:15;;;;;;;9.38;2.28;;;13.20;96.70;;;;;;4998979;28;19925;-71
2023/03/31 01:45:55;;;;;;;5.70;1.67;;;13.20;96.70;;;;;;5003681;28;20049;-71
2023/03/31 01:48:35;;;;;;;6.57;1.90;;;13.20;96.70;;;;;;4994341;28;20042;-71
2023/03/31 01:51:15;;;;;;;9.55;1.88;;;13.20;96.70;;;;;;5017226;28;20055;-72
2023/03/31 01:53:50;;;;;;;7.25;1.75;;;13.20;96.70;;;;;;5005654;28;20060;-71
2023/03/31 01:56:24;;;;;;;4.65;1.70;;;13.20;96.70;;;;;;5002851;28;20858;-71
2023/03/31 01:58:56;;;;;;;5.72;1.70;;;13.20;96.70;;;;;;5011007;28;20080;-71
2023/03/31 02:01:34;;;;;;;7.20;1.95;;;13.10;96.70;;;;;;5005018;28;20547;-71
2023/03/31 02:04:09;;;;;;;5.65;1.65;;;13.10;96.70;;;;;;4988095;28;20046;-71
2023/03/31 02:06:41;;;;;;;5.90;1.52;;;13.10;96.70;;;;;;5005205;28;20128;-71
2023/03/31 02:09:31;;;;;;;5.07;1.58;;;13.10;96.70;;;;;;4993258;28;20724;-71
2023/03/31 02:12:06;;;;;;;6.15;1.55;;;12.90;96.70;;;;;;4965342;28;20053;-72
2023/03/31 02:14:38;;;;;;;8.93;1.45;;;12.90;96.70;;;;;;4984345;28;20038;-71
2023/03/31 02:17:09;;;;;;;6.38;1.60;;;12.90;96.70;;;;;;5000212;28;20133;-71
2023/03/31 02:19:39;;;;;;;6.82;1.77;;;12.90;96.70;;;;;;4991791;28;20048;-71
2023/03/31 02:22:08;;;;;;;5.85;1.45;;;12.80;96.70;;;;;;4987648;28;20099;-71
2023/03/31 02:24:39;;;;;;;7.20;2.17;;;12.80;96.70;;;;;;5014542;28;20372;-71
2023/03/31 02:27:15;;;;;;;8.43;1.90;;;12.80;96.70;;;;;;5005293;28;20046;-72
2023/03/31 02:29:43;;;;;;;8.52;1.77;;;12.90;96.70;;;;;;4996137;28;20148;-72
2023/03/31 02:32:19;;;;;;;6.38;1.85;;;13.00;96.70;;;;;;4981301;28;20120;-71
2023/03/31 02:34:48;;;;;;;7.30;1.80;;;12.90;96.70;;;;;;4987729;28;20053;-72
2023/03/31 02:37:16;;;;;;;5.45;2.15;;;13.00;96.70;;;;;;4994266;28;20531;-71
2023/03/31 02:39:48;;;;;;;6.53;2.42;;;13.00;96.70;;;;;;4981329;28;20059;-71
2023/03/31 02:42:18;;;;;;;7.45;2.10;;;13.00;96.70;;;;;;5008500;28;20042;-71
2023/03/31 02:44:49;;;;;;;5.90;1.92;;;12.90;96.70;;;;;;4989335;28;20108;-71
2023/03/31 02:47:20;;;;;;;7.88;2.65;;;12.90;96.70;;;;;;4993757;28;20046;-71
2023/03/31 02:49:51;;;;;;;5.97;2.25;;;12.90;96.70;;;;;;5001039;28;20488;-71
2023/03/31 02:52:39;;;;;;;7.68;2.42;;;12.90;96.70;;;;;;4995614;28;20064;-71
2023/03/31 02:55:37;;;;;;;6.95;2.30;;;12.90;96.70;;;;;;5003105;28;20508;-71
2023/03/31 02:58:36;;;;;;;5.53;2.10;;;12.90;96.70;;;;;;5005643;28;20042;-72
2023/03/31 03:01:20;;;;;;;5.68;1.95;;;12.80;96.70;;;;;;5010966;28;20045;-71
2023/03/31 03:03:57;;;;;;;8.68;2.22;;;12.80;96.70;;;;;;4987070;28;20073;-71
2023/03/31 03:06:36;;;;;;;6.63;2.10;;;12.80;96.70;;;;;;4999431;28;20419;-72
2023/03/31 03:09:25;;;;;;;6.72;2.15;;;12.80;96.70;;;;;;4994119;28;20132;-72
2023/03/31 03:12:05;;;;;;;7.40;2.40;;;12.70;96.70;;;;;;4986211;28;20119;-71
2023/03/31 03:14:39;;;;;;;5.95;2.30;;;12.70;96.70;;;;;;5011084;28;20041;-71
2023/03/31 03:17:13;;;;;;;5.20;2.08;;;12.70;96.70;;;;;;4990062;28;20065;-71
2023/03/31 03:19:42;;;;;;;11.07;1.90;;;12.70;96.70;;;;;;4986596;28;20727;-72
2023/03/31 03:22:09;;;;;;;5.75;1.70;;;12.70;96.70;;;;;;4994922;28;20046;-71
2023/03/31 03:24:38;;;;;;;5.28;2.00;;;12.80;96.70;;;;;;4988469;28;20482;-71
2023/03/31 03:27:06;;;;;;;6.30;1.77;;;12.70;96.70;;;;;;4987520;28;20049;-71
2023/03/31 03:29:35;;;;;;;5.43;1.67;;;12.80;96.70;;;;;;5010197;28;20559;-71
2023/03/31 03:32:03;;;;;;;5.45;2.25;;;12.80;96.70;;;;;;4992737;28;20049;-71
2023/03/31 03:34:31;;;;;;;7.10;2.20;;;12.70;96.70;;;;;;5009004;28;21713;-71
2023/03/31 03:37:09;;;;;;;5.55;2.00;;;12.70;96.70;;;;;;5009328;28;20119;-72
2023/03/31 03:39:37;;;;;;;10.55;3.20;;;12.60;96.70;;;;;;5017814;28;20495;-71
2023/03/31 03:42:05;;;;;;;7.85;1.88;;;12.60;96.70;;;;;;5014840;28;20049;-71
2023/03/31 03:44:33;;;;;;;5.38;1.90;;;12.60;96.70;;;;;;5012696;28;20498;-71
2023/03/31 03:47:02;;;;;;;5.30;2.20;;;12.60;96.70;;;;;;5009479;28;20045;-71
2023/03/31 03:49:29;;;;;;;9.40;2.25;;;12.50;96.70;;;;;;5005274;28;20096;-71
2023/03/31 03:51:57;;;;;;;6.40;2.33;;;12.50;96.70;;;;;;5006881;28;20038;-71
2023/03/31 03:54:25;;;;;;;4.68;1.77;;;12.50;96.70;;;;;;5017345;28;20128;-71
2023/03/31 03:56:52;;;;;;;5.43;1.63;;;12.50;96.70;;;;;;5017435;28;20065;-72
2023/03/31 03:59:20;;;;;;;5.35;1.90;;;12.50;96.70;;;;;;4992244;28;20085;-71
2023/03/31 04:01:49;;;;;;;8.15;2.10;;;12.50;96.70;;;;;;5010083;28;20091;-71
2023/03/31 04:04:18;;;;;;;6.03;2.20;;;12.60;96.70;;;;;;4987645;28;20143;-71
2023/03/31 04:06:46;;;;;;;4.28;2.08;;;12.70;96.70;;;;;;5011337;28;20042;-71
2023/03/31 04:09:14;;;;;;;5.82;2.03;;;12.70;96.70;;;;;;5018933;28;20104;-71
2023/03/31 04:11:42;;;;;;;6.40;1.92;;;12.80;96.70;;;;;;4989253;28;20042;-73
2023/03/31 04:14:09;;;;;;;4.95;1.75;;;12.80;96.70;;;;;;4991197;28;20042;-70
2023/03/31 04:16:39;;;;;;;7.20;2.28;;;12.80;96.70;;;;;;4990439;28;20038;-70
2023/03/31 04:19:10;;;;;;;17.90;3.33;;;12.80;96.70;;;;;;5001825;28;20045;-71
2023/03/31 04:21:44;;;;;;;5.65;2.13;;;12.80;96.70;;;;;;5009161;28;20569;-71
2023/03/31 04:24:20;;;;;;;8.15;1.70;;;12.80;96.70;;;;;;5004982;28;20092;-71
2023/03/31 04:26:49;;;;;;;8.07;2.13;;;12.80;96.70;;;;;;4998959;28;20046;-71
2023/03/31 04:29:21;;;;;;;14.07;2.40;;;12.90;96.70;;;;;;4989565;28;20049;-70
2023/03/31 04:31:51;;;;;;;7.50;2.28;;;12.90;96.70;;;;;;4993249;28;20091;-71
2023/03/31 04:34:25;;;;;;;8.07;2.17;;;12.90;96.70;;;;;;4984666;28;20124;-71
2023/03/31 04:36:55;;;;;;;11.60;2.30;;;12.90;96.70;;;;;;4986732;28;20779;-71
2023/03/31 04:39:25;;;;;;;9.25;2.47;;;12.90;96.70;;;;;;4993615;28;20279;-71
2023/03/31 04:41:54;;;;;;;10.45;2.05;;;12.90;96.70;;;;;;5014051;28;20042;-70
2023/03/31 04:44:21;;;;;;;8.07;1.80;;;12.90;96.70;;;;;;5022621;28;20048;-71
2023/03/31 04:46:49;;;;;;;8.77;2.47;;;12.80;96.70;;;;;;5014152;28;20522;-70
2023/03/31 04:49:17;;;;;;;17.25;2.50;;;12.80;96.70;;;;;;5012606;28;20046;-71
2023/03/31 04:51:45;;;;;;;10.25;2.38;;;12.80;96.70;;;;;;4988692;28;20414;-71
2023/03/31 04:54:14;;;;;;;18.48;3.15;;;12.80;96.70;;;;;;5017710;28;20312;-70
2023/03/31 04:56:42;;;;;;;9.60;2.70;;;12.90;96.70;;;;;;5005292;28;20135;-70
2023/03/31 04:59:10;;;;;;;12.30;3.13;;;12.90;96.70;;;;;;5021642;28;20046;-70
2023/03/31 05:01:44;;;;;;;12.48;2.85;;;12.90;96.70;;;;;;5011397;28;20326;-71
2023/03/31 05:04:12;;;;;;;7.45;2.60;;;13.00;96.70;;;;;;5005194;28;20055;-70
2023/03/31 05:06:40;;;;;;;32.05;4.57;;;13.00;96.70;;;;;;4987224;28;20065;-71
2023/03/31 05:09:08;;;;;;;10.70;2.58;;;12.90;96.70;;;;;;4993742;28;20143;-71
2023/03/31 05:11:38;;;;;;;12.25;3.00;;;12.90;96.70;;;;;;4999759;28;20050;-70
2023/03/31 05:14:07;;;;;;;8.95;3.00;;;12.90;96.70;;;;;;5011390;28;20119;-70
2023/03/31 05:16:38;;;;;;;19.38;3.50;;;12.90;96.70;;;;;;4996036;28;20124;-71
2023/03/31 05:19:06;;;;;;;71.50;7.70;;;12.90;96.70;;;;;;5005900;28;20049;-71
2023/03/31 05:21:34;;;;;;;53.90;7.30;;;12.90;96.70;;;;;;5007233;28;20034;-71
2023/03/31 05:24:03;;;;;;;29.15;3.85;;;12.90;96.70;;;;;;5013294;28;21321;-71
2023/03/31 05:26:31;;;;;;;23.95;3.45;;;12.90;96.70;;;;;;4989335;28;20041;-71
2023/03/31 05:29:00;;;;;;;26.05;4.60;;;12.90;96.70;;;;;;5006355;28;20052;-70
2023/03/31 05:31:28;;;;;;;23.17;4.32;;;12.90;96.70;;;;;;5009440;28;20056;-70
2023/03/31 05:33:55;;;;;;;15.32;4.38;;;12.90;96.70;;;;;;5008866;28;20042;-70
2023/03/31 05:36:25;;;;;;;14.18;4.28;;;12.90;96.70;;;;;;5012528;28;20034;-71
2023/03/31 05:38:53;;;;;;;23.17;5.38;;;12.90;96.70;;;;;;5010409;28;20046;-71
2023/03/31 05:41:21;;;;;;;19.83;4.60;;;12.90;96.70;;;;;;5005526;28;20045;-71
2023/03/31 05:43:49;;;;;;;13.93;3.33;;;12.90;96.70;;;;;;5008375;28;20469;-70
2023/03/31 05:46:18;;;;;;;45.60;4.82;;;12.90;96.70;;;;;;5007401;28;20080;-70
2023/03/31 05:48:46;;;;;;;20.58;3.25;;;12.90;96.70;;;;;;4986806;28;20049;-71
2023/03/31 05:51:13;;;;;;;48.28;6.10;;;12.90;96.70;;;;;;4998244;28;20726;-71
2023/03/31 05:53:41;;;;;;;23.15;3.92;;;13.00;96.70;;;;;;5005438;28;20145;-71
2023/03/31 05:56:11;;;;;;;10.48;3.58;;;12.90;96.70;;;;;;4998372;28;20045;-71
2023/03/31 05:58:38;;;;;;;19.65;3.78;;;12.90;96.70;;;;;;5006415;28;20511;-71
2023/03/31 06:01:08;;;;;;;17.42;3.30;;;12.80;96.70;;;;;;5024087;28;20057;-71
2023/03/31 06:03:40;;;;;;;9.45;3.03;;;12.80;96.70;;;;;;4971109;28;20157;-71
2023/03/31 06:06:08;;;;;;;20.83;3.35;;;12.90;96.70;;;;;;4984949;28;20050;-71
2023/03/31 06:08:36;;;;;;;8.07;2.38;;;12.90;96.70;;;;;;4989015;28;20049;-71
2023/03/31 06:11:05;;;;;;;12.38;2.63;;;12.80;96.70;;;;;;4998883;28;20052;-71
2023/03/31 06:13:34;;;;;;;11.18;2.55;;;12.90;96.70;;;;;;5006426;28;20037;-72
2023/03/31 06:16:01;;;;;;;13.30;2.92;;;12.80;96.70;;;;;;5006924;28;20042;-71
2023/03/31 06:18:31;;;;;;;15.52;2.78;;;12.90;96.70;;;;;;5004924;28;20601;-71
2023/03/31 06:21:01;;;;;;;9.57;2.03;;;12.90;96.70;;;;;;5004671;28;20052;-71
2023/03/31 06:23:28;;;;;;;10.55;2.05;;;12.90;96.70;;;;;;4991159;28;20108;-72
2023/03/31 06:26:01;;;;;;;10.10;2.50;;;13.00;96.70;;;;;;4987313;28;20576;-71
2023/03/31 06:28:30;;;;;;;34.95;4.50;;;13.00;96.70;;;;;;5007500;28;20050;-72
2023/03/31 06:31:02;;;;;;;19.90;3.40;;;13.10;96.70;;;;;;4998224;28;20053;-71
2023/03/31 06:33:31;;;;;;;12.10;2.83;;;13.10;96.70;;;;;;5010240;28;20506;-72
2023/03/31 06:36:03;;;;;;;7.97;2.33;;;13.10;96.70;;;;;;4998720;28;20065;-71
2023/03/31 06:38:31;;;;;;;7.80;2.90;;;13.10;96.70;;;;;;5004587;28;20750;-71
2023/03/31 06:40:59;;;;;;;12.50;2.78;;;13.20;96.70;;;;;;5008722;28;20113;-70
2023/03/31 06:43:27;;;;;;;8.82;2.50;;;13.20;96.70;;;;;;4986302;28;20505;-71
2023/03/31 06:45:55;;;;;;;11.77;3.45;;;13.20;96.70;;;;;;5013702;28;20042;-71
2023/03/31 06:48:24;;;;;;;11.23;2.45;;;13.30;96.70;;;;;;5001015;28;20586;-71
2023/03/31 06:50:53;;;;;;;9.77;2.90;;;13.30;96.70;;;;;;4986761;28;20041;-71
2023/03/31 06:53:23;;;;;;;9.45;3.47;;;13.40;96.70;;;;;;4989358;28;20049;-71
2023/03/31 06:55:51;;;;;;;8.07;2.72;;;13.50;96.70;;;;;;5003988;28;20038;-71
2023/03/31 06:58:19;;;;;;;13.50;2.88;;;13.50;96.70;;;;;;4986485;28;20125;-73
2023/03/31 07:00:47;;;;;;;16.25;3.28;;;13.50;96.70;;;;;;5003848;28;20054;-72
2023/03/31 07:03:17;;;;;;;6.30;2.45;;;13.50;96.70;;;;;;4988858;28;20057;-71
2023/03/31 07:05:48;;;;;;;9.65;2.92;;;13.60;96.70;;;;;;5005875;28;20099;-71
2023/03/31 07:08:17;;;;;;;10.88;2.58;;;13.60;96.70;;;;;;4985916;28;20054;-71
2023/03/31 07:10:48;;;;;;;9.50;2.97;;;13.70;96.70;;;;;;4975503;28;20080;-72
2023/03/31 07:13:16;;;;;;;8.32;2.30;;;13.70;96.70;;;;;;4986688;28;20267;-71
2023/03/31 07:15:47;;;;;;;9.85;2.72;;;13.80;96.70;;;;;;5003972;28;20073;-71
2023/03/31 07:18:18;;;;;;;6.60;2.80;;;13.80;96.70;;;;;;5012121;28;20505;-72
2023/03/31 07:20:49;;;;;;;12.00;3.53;;;13.90;96.70;;;;;;5002766;28;20168;-72
2023/03/31 07:23:18;;;;;;;8.43;3.13;;;13.90;96.70;;;;;;4985641;28;20464;-72
2023/03/31 07:25:47;;;;;;;8.77;2.90;;;13.90;96.70;;;;;;5009968;28;20073;-72
2023/03/31 07:28:16;;;;;;;11.98;4.20;;;13.90;96.70;;;;;;4989228;28;20495;-72
2023/03/31 07:30:44;;;;;;;13.43;3.72;;;14.00;96.70;;;;;;5002756;28;20451;-72
2023/03/31 07:33:12;;;;;;;8.35;3.40;;;14.10;96.70;;;;;;5003357;28;20053;-71
2023/03/31 07:35:41;;;;;;;12.43;3.67;;;14.20;96.70;;;;;;5002646;28;20090;-72
2023/03/31 07:38:09;;;;;;;16.75;4.25;;;14.30;96.70;;;;;;4983578;28;20053;-72
2023/03/31 07:40:38;;;;;;;11.70;3.90;;;14.30;96.70;;;;;;5006823;28;20528;-72
2023/03/31 07:43:08;;;;;;;9.40;4.05;;;14.30;96.70;;;;;;5003068;28;20044;-72
2023/03/31 07:45:39;;;;;;;11.15;4.55;;;14.40;96.70;;;;;;5002627;28;20045;-73
2023/03/31 07:48:07;;;;;;;11.65;4.63;;;14.40;96.70;;;;;;5001942;28;20500;-72
2023/03/31 07:50:35;;;;;;;10.75;5.10;;;14.50;96.70;;;;;;5003552;28;20042;-73
2023/03/31 07:53:07;;;;;;;23.67;5.25;;;14.60;96.70;;;;;;4993556;28;20604;-72
2023/03/31 07:55:35;;;;;;;33.20;5.32;;;14.60;96.70;;;;;;5011901;28;20120;-71
2023/03/31 07:58:03;;;;;;;14.50;4.47;;;14.60;96.70;;;;;;5003500;28;20069;-72
2023/03/31 08:00:33;;;;;;;17.05;5.22;;;14.60;96.70;;;;;;4984420;28;20422;-72
2023/03/31 08:03:01;;;;;;;13.15;4.68;;;14.50;96.70;;;;;;4991023;28;20045;-72
2023/03/31 08:05:42;;;;;;;14.10;4.43;;;14.50;96.70;;;;;;5011995;28;20046;-73
2023/03/31 08:08:10;;;;;;;16.67;4.68;;;14.50;96.70;;;;;;5002219;28;20049;-72
2023/03/31 08:10:38;;;;;;;10.32;4.60;;;14.60;96.70;;;;;;5020589;28;20052;-72
2023/03/31 08:13:06;;;;;;;32.30;5.68;;;14.70;96.70;;;;;;5000830;28;20069;-72
2023/03/31 08:15:36;;;;;;;14.55;5.05;;;14.70;96.70;;;;;;4984804;28;20042;-73
2023/03/31 08:18:05;;;;;;;13.88;5.22;;;14.80;96.70;;;;;;4971173;28;20365;-72
2023/03/31 08:20:33;;;;;;;11.80;5.00;;;14.90;96.70;;;;;;5010812;28;20047;-72
2023/03/31 08:23:01;;;;;;;9.68;4.72;;;15.10;96.70;;;;;;5002968;28;20052;-72
2023/03/31 08:25:29;;;;;;;10.57;4.10;;;15.20;96.70;;;;;;5006686;28;20042;-72
2023/03/31 08:27:57;;;;;;;10.43;4.90;;;15.20;96.70;;;;;;5008534;28;20050;-72
2023/03/31 08:30:25;;;;;;;15.00;5.00;;;15.30;96.70;;;;;;4991079;28;20037;-72
2023/03/31 08:32:55;;;;;;;19.88;5.55;;;15.50;96.70;;;;;;5007377;28;20133;-72
2023/03/31 08:35:23;;;;;;;14.02;5.20;;;15.70;96.70;;;;;;4984406;28;20108;-72
2023/03/31 08:37:52;;;;;;;14.25;4.93;;;15.80;96.70;;;;;;4992492;28;20056;-72
2023/03/31 08:40:23;;;;;;;15.18;5.43;;;15.80;96.70;;;;;;4992353;28;20191;-72
2023/03/31 08:42:54;;;;;;;13.02;4.72;;;15.90;96.70;;;;;;5002469;28;20050;-71
2023/03/31 08:45:26;;;;;;;12.77;4.68;;;16.10;96.70;;;;;;4988659;28;20052;-72
2023/03/31 08:48:01;;;;;;;11.38;4.63;;;16.20;96.70;;;;;;4984254;28;20419;-72
2023/03/31 08:50:39;;;;;;;32.63;6.75;;;16.20;96.70;;;;;;4985708;28;20807;-72
2023/03/31 08:53:19;;;;;;;12.00;4.70;;;16.20;96.70;;;;;;4995758;28;20053;-72
2023/03/31 08:55:50;;;;;;;13.15;4.68;;;16.30;96.70;;;;;;5002604;28;20042;-72
2023/03/31 08:58:31;;;;;;;20.15;4.78;;;16.30;96.70;;;;;;4984806;28;20132;-73
2023/03/31 09:01:06;;;;;;;40.28;6.82;;;16.40;96.70;;;;;;4968286;28;20049;-72
2023/03/31 09:03:44;;;;;;;18.05;4.93;;;16.50;96.70;;;;;;5002332;28;20050;-72
2023/03/31 09:06:16;;;;;;;25.77;5.43;;;16.50;96.70;;;;;;5009835;28;20104;-72
2023/03/31 09:08:44;;;;;;;26.02;5.40;;;16.50;96.70;;;;;;5005574;28;20046;-72
2023/03/31 09:11:27;;;;;;;14.32;5.25;;;16.40;96.70;;;;;;5006552;28;20046;-72
2023/03/31 09:14:03;;;;;;;27.70;6.32;;;16.40;96.70;;;;;;5007673;28;20045;-72
2023/03/31 09:16:34;;;;;;;;;;;16.30;96.70;;;;;;5003204;28;20045;-72
2023/03/31 09:19:13;;;;;;;8.63;3.13;;;16.30;96.70;;;;;;5002441;28;20433;-72
2023/03/31 09:21:43;;;;;;;9.52;3.40;;;16.20;96.70;;;;;;5006267;28;20136;-72
2023/03/31 09:24:16;;;;;;;10.10;3.50;;;16.30;96.70;;;;;;4998826;28;20041;-72
2023/03/31 09:26:56;;;;;;;12.55;3.78;;;16.40;96.70;;;;;;4987864;28;20056;-72
2023/03/31 09:29:30;;;;;;;11.18;3.03;;;16.40;96.70;;;;;;5011022;28;20057;-72
2023/03/31 09:32:09;;;;;;;14.48;3.35;;;16.30;96.70;;;;;;4987963;28;20045;-72
2023/03/31 09:34:39;;;;;;;19.42;3.88;;;16.30;96.70;;;;;;5005670;28;20483;-72
2023/03/31 09:37:08;;;;;;;11.27;3.10;;;16.20;96.70;;;;;;4979542;28;20555;-72
2023/03/31 09:39:37;;;;;;;9.07;3.20;;;16.10;96.70;;;;;;4990507;28;20049;-72
2023/03/31 09:42:14;;;;;;;14.85;3.85;;;16.10;96.70;;;;;;5013204;28;20096;-72
2023/03/31 09:44:45;;;;;;;10.45;3.85;;;16.20;96.70;;;;;;5007249;28;20492;-72
2023/03/31 09:47:18;;;;;;;21.25;3.90;;;16.40;96.70;;;;;;5020412;28;20565;-72
2023/03/31 09:49:47;;;;;;;9.50;3.00;;;16.70;96.70;;;;;;5005290;28;20096;-72
2023/03/31 09:52:27;;;;;;;40.38;6.90;;;16.80;96.70;;;;;;5008134;28;20073;-72
2023/03/31 09:54:59;;;;;;;18.13;4.00;;;16.90;96.70;;;;;;4992419;28;20046;-73
2023/03/31 09:57:31;;;;;;;13.90;4.00;;;16.90;96.70;;;;;;5002719;28;20050;-73
2023/03/31 10:00:17;;;;;;;10.18;3.08;;;16.90;96.70;;;;;;4984012;28;20094;-72
2023/03/31 10:02:49;;;;;;;19.25;4.72;;;16.80;96.70;;;;;;4994185;28;20050;-72
2023/03/31 10:05:30;;;;;;;20.75;5.30;;;16.80;96.70;;;;;;4997827;28;20042;-72
2023/03/31 10:08:32;;;;;;;18.15;5.10;;;16.70;96.70;;;;;;5003054;28;20104;-72
2023/03/31 10:11:10;;;;;;;52.13;8.05;;;16.70;96.70;;;;;;4970033;28;20058;-72
2023/03/31 10:13:45;;;;;;;29.23;6.47;;;16.60;96.70;;;;;;4985745;28;20054;-72
2023/03/31 10:16:21;;;;;;;31.92;6.88;;;16.60;96.70;;;;;;5001150;28;20166;-72
2023/03/31 10:18:49;;;;;;;24.43;7.30;;;16.60;96.70;;;;;;4977697;28;20058;-73
2023/03/31 10:21:22;;;;;;;20.27;5.72;;;16.70;96.70;;;;;;4992567;28;20056;-72
2023/03/31 10:23:51;;;;;;;64.00;8.32;;;16.70;96.70;;;;;;4993116;28;20051;-72
2023/03/31 10:26:21;;;;;;;79.07;9.85;;;16.80;96.70;;;;;;5001187;28;20042;-72
2023/03/31 10:28:51;;;;;;;49.55;7.03;;;16.80;96.70;;;;;;4987578;28;20045;-72
2023/03/31 10:31:23;;;;;;;20.50;4.88;;;17.00;96.70;;;;;;4985370;28;20054;-72
2023/03/31 10:33:52;;;;;;;21.13;4.85;;;17.10;96.70;;;;;;4998445;28;20143;-72
2023/03/31 10:36:25;;;;;;;28.52;6.65;;;17.20;96.70;;;;;;4987850;28;20042;-72
2023/03/31 10:38:54;;;;;;;14.93;4.88;;;17.20;96.70;;;;;;4987929;28;20038;-72
2023/03/31 10:41:26;;;;;;;33.10;6.32;;;17.20;96.70;;;;;;4995418;28;20073;-72
2023/03/31 10:43:55;;;;;;;20.75;4.97;;;17.10;96.70;;;;;;5000395;28;20065;-72
2023/03/31 10:46:40;;;;;;;21.35;5.68;;;17.10;96.70;;;;;;4993292;28;20546;-72
2023/03/31 10:49:22;;;;;;;12.38;5.15;;;17.10;96.70;;;;;;4991885;28;20104;-72
2023/03/31 10:51:55;;;;;;;21.73;5.47;;;16.90;96.70;;;;;;4998565;28;20058;-72
2023/03/31 10:54:22;;;;;;;19.38;5.13;;;16.80;96.70;;;;;;4992353;28;20046;-72
2023/03/31 10:56:52;;;;;;;11.23;5.05;;;16.60;96.70;;;;;;4997047;28;20479;-72
2023/03/31 10:59:39;;;;;;;12.18;5.22;;;16.50;96.70;;;;;;4984443;28;20069;-72
2023/03/31 11:02:38;;;;;;;42.17;6.97;;;16.50;96.70;;;;;;5002333;28;20491;-73
2023/03/31 11:05:14;;;;;;;17.98;5.72;;;16.50;96.70;;;;;;4996310;28;20052;-71
2023/03/31 11:07:57;;;;;;;41.53;5.90;;;16.50;96.70;;;;;;5003431;28;20054;-71
2023/03/31 11:11:03;;;;;;;27.25;6.30;;;16.50;96.70;;;;;;5002477;28;20049;-72
2023/03/31 11:13:38;;;;;;;49.58;7.40;;;16.50;96.70;;;;;;5003703;28;20050;-72
2023/03/31 11:16:17;;;;;;;22.02;6.15;;;16.50;96.70;;;;;;4988513;28;20045;-72
2023/03/31 11:19:02;;;;;;;18.20;5.35;;;16.50;96.70;;;;;;4985844;28;20144;-72
2023/03/31 11:21:41;;;;;;;17.05;4.50;;;16.70;96.70;;;;;;5013528;28;20521;-72
2023/03/31 11:24:23;;;;;;;23.95;4.90;;;16.80;96.70;;;;;;5004361;28;20095;-72
2023/03/31 11:26:58;;;;;;;17.38;5.45;;;16.90;96.70;;;;;;4993337;28;20508;-72
2023/03/31 11:29:33;;;;;;;12.30;4.28;;;16.80;96.70;;;;;;5006629;28;20048;-72
2023/03/31 11:32:30;;;;;;;13.73;4.72;;;16.70;96.70;;;;;;5003661;28;20056;-73
2023/03/31 11:35:13;;;;;;;10.93;3.95;;;16.50;96.70;;;;;;5008788;28;20042;-72
2023/03/31 11:37:55;;;;;;;16.55;5.47;;;16.40;96.70;;;;;;4985126;28;20058;-72
2023/03/31 11:40:37;;;;;;;17.52;5.65;;;16.30;96.70;;;;;;5010632;28;20551;-72
2023/03/31 11:43:11;;;;;;;14.30;4.63;;;16.10;96.70;;;;;;4986054;28;20045;-72
2023/03/31 11:45:43;;;;;;;11.55;4.85;;;16.10;96.70;;;;;;4985176;28;20419;-72
2023/03/31 11:48:21;;;;;;;12.60;5.40;;;16.10;96.70;;;;;;4986483;28;20510;-72
2023/03/31 11:50:50;;;;;;;8.57;4.57;;;16.00;96.70;;;;;;4984760;28;20148;-72
2023/03/31 11:53:22;;;;;;;12.35;4.75;;;16.00;96.70;;;;;;4985375;28;20050;-72
2023/03/31 11:55:56;;;;;;;16.08;4.85;;;15.90;96.70;;;;;;5011165;28;20702;-72
2023/03/31 11:58:34;;;;;;;14.30;4.97;;;15.90;96.70;;;;;;4985649;28;20077;-73
2023/03/31 12:01:09;;;;;;;12.27;4.95;;;15.80;96.70;;;;;;5000867;28;20526;-74
2023/03/31 12:03:46;;;;;;;13.68;4.53;;;15.80;96.70;;;;;;4999809;28;20076;-71
2023/03/31 12:06:18;;;;;;;14.63;4.50;;;15.80;96.70;;;;;;4982665;28;20523;-72
2023/03/31 12:09:03;;;;;;;11.13;4.47;;;15.80;96.70;;;;;;4984690;28;20713;-72
2023/03/31 12:11:37;;;;;;;11.30;4.35;;;15.80;96.70;;;;;;4988548;28;20075;-72
2023/03/31 12:14:20;;;;;;;15.70;5.00;;;15.90;96.70;;;;;;4993210;28;20062;-72
2023/03/31 12:16:51;;;;;;;13.98;5.18;;;15.90;96.70;;;;;;4986705;28;20046;-72
2023/03/31 12:19:28;;;;;;;15.05;5.10;;;15.80;96.70;;;;;;5001871;28;20296;-71
2023/03/31 12:22:00;;;;;;;;;;;15.80;96.70;;;;;;5001751;28;20070;-72
2023/03/31 12:24:28;;;;;;;12.57;4.82;;;15.80;96.70;;;;;;5016370;28;20321;-72
2023/03/31 12:27:08;;;;;;;10.18;4.03;;;15.80;96.70;;;;;;4998511;28;20077;-71
2023/03/31 12:29:38;;;;;;;16.58;5.20;;;15.80;96.70;;;;;;4987983;28;20039;-72
2023/03/31 12:32:11;;;;;;;31.63;5.72;;;15.90;96.70;;;;;;4982508;28;20050;-71
2023/03/31 12:34:44;;;;;;;12.77;5.30;;;16.00;96.70;;;;;;4998680;28;20072;-71
2023/03/31 12:37:48;;;;;;;11.48;4.82;;;16.10;96.70;;;;;;4998577;28;20065;-72
2023/03/31 12:40:26;;;;;;;14.13;5.25;;;16.10;96.70;;;;;;4983602;28;20147;-74
2023/03/31 12:43:10;;;;;;;15.85;5.43;;;16.10;96.70;;;;;;4991298;28;20100;-71
2023/03/31 12:45:42;;;;;;;11.82;5.43;;;16.10;96.70;;;;;;4983447;28;20159;-73
2023/03/31 12:48:26;;;;;;;17.15;5.75;;;16.30;96.70;;;;;;4983016;28;20046;-71
2023/03/31 12:51:09;;;;;;;11.15;4.60;;;16.30;96.70;;;;;;4992753;28;20058;-70
2023/03/31 12:53:45;;;;;;;53.67;8.40;;;16.40;96.70;;;;;;4999936;28;20152;-71
2023/03/31 12:56:14;;;;;;;31.77;5.05;;;16.50;96.70;;;;;;4983973;28;20077;-71
2023/03/31 12:58:46;;;;;;;37.00;5.85;;;16.80;96.70;;;;;;4988970;28;20042;-71
2023/03/31 13:01:17;;;;;;;18.40;4.55;;;17.10;96.70;;;;;;4981036;28;20065;-71
2023/03/31 13:03:49;;;;;;;12.88;5.80;;;17.20;96.70;;;;;;4984968;28;20046;-71
2023/03/31 13:06:55;;;;;;;18.23;5.80;;;17.10;96.70;;;;;;5001665;28;20567;-71
2023/03/31 13:10:23;;;;;;;17.00;9.88;;;17.00;96.70;;;;;;4993842;28;20050;-71
2023/03/31 13:13:00;;;;;;;11.35;4.90;;;16.90;96.70;;;;;;4992922;28;20057;-71
2023/03/31 13:15:30;;;;;;;15.82;5.65;;;16.80;96.70;;;;;;5002252;28;20092;-71